sensor_id;sensor_type;location;lat;lon;timestamp;pressure;altitude;pressure_sealevel;temperature;humidity
12471;BME280;36499;46.484;13.832;2023-04-06T00:00:58;98439.81;;;4.45;51.04
12471;BME280;36499;46.484;13.832;2023-04-06T00:03:25;98446.78;;;4.43;51.54
12471;BME280;36499;46.484;13.832;2023-04-06T00:05:53;98436.56;;;4.40;51.17
12471;BME280;36499;46.484;13.832;2023-04-06T00:08:20;98443.47;;;4.38;51.58
12471;BME280;36499;46.484;13.832;2023-04-06T00:10:49;98435.81;;;4.35;52.10
12471;BME280;36499;46.484;13.832;2023-04-06T00:13:18;98435.06;;;4.31;51.99
12471;BME280;36499;46.484;13.832;2023-04-06T00:15:45;98430.88;;;4.27;52.45
12471;BME280;36499;46.484;13.832;2023-04-06T00:18:12;98435.09;;;4.30;53.30
12471;BME280;36499;46.484;13.832;2023-04-06T00:20:39;98435.16;;;4.28;52.74
12471;BME280;36499;46.484;13.832;2023-04-06T00:23:07;98435.19;;;4.27;52.99
12471;BME280;36499;46.484;13.832;2023-04-06T00:25:34;98427.50;;;4.25;51.46
12471;BME280;36499;46.484;13.832;2023-04-06T00:28:01;98436.16;;;4.23;51.58
12471;BME280;36499;46.484;13.832;2023-04-06T00:30:30;98432.56;;;4.28;51.55
12471;BME280;36499;46.484;13.832;2023-04-06T00:32:58;98428.25;;;4.29;52.94
12471;BME280;36499;46.484;13.832;2023-04-06T00:35:25;98430.00;;;4.27;52.87
12471;BME280;36499;46.484;13.832;2023-04-06T00:37:52;98435.38;;;4.21;52.92
12471;BME280;36499;46.484;13.832;2023-04-06T00:40:19;98435.56;;;4.13;53.42
12471;BME280;36499;46.484;13.832;2023-04-06T00:42:47;98433.94;;;4.11;53.36
12471;BME280;36499;46.484;13.832;2023-04-06T00:45:14;98429.72;;;4.07;53.54
12471;BME280;36499;46.484;13.832;2023-04-06T00:47:43;98435.78;;;4.06;53.20
12471;BME280;36499;46.484;13.832;2023-04-06T00:50:10;98430.69;;;4.03;54.62
12471;BME280;36499;46.484;13.832;2023-04-06T00:52:37;98436.75;;;4.02;53.63
12471;BME280;36499;46.484;13.832;2023-04-06T00:55:06;98433.41;;;3.98;52.59
12471;BME280;36499;46.484;13.832;2023-04-06T00:57:33;98434.34;;;3.96;52.67
12471;BME280;36499;46.484;13.832;2023-04-06T01:00:01;98433.44;;;3.97;52.93
12471;BME280;36499;46.484;13.832;2023-04-06T01:02:29;98432.53;;;3.99;52.27
12471;BME280;36499;46.484;13.832;2023-04-06T01:04:57;98429.09;;;3.99;52.59
12471;BME280;36499;46.484;13.832;2023-04-06T01:07:25;98428.31;;;3.95;51.97
12471;BME280;36499;46.484;13.832;2023-04-06T01:09:53;98430.13;;;3.92;51.96
12471;BME280;36499;46.484;13.832;2023-04-06T01:12:20;98432.66;;;3.93;51.75
12471;BME280;36499;46.484;13.832;2023-04-06T01:14:48;98429.31;;;3.90;52.20
12471;BME280;36499;46.484;13.832;2023-04-06T01:17:16;98434.53;;;3.88;51.59
12471;BME280;36499;46.484;13.832;2023-04-06T01:19:43;98435.44;;;3.85;51.85
12471;BME280;36499;46.484;13.832;2023-04-06T01:22:16;98436.41;;;3.81;51.91
12471;BME280;36499;46.484;13.832;2023-04-06T01:24:44;98432.13;;;3.80;51.39
12471;BME280;36499;46.484;13.832;2023-04-06T01:27:12;98430.44;;;3.79;51.71
12471;BME280;36499;46.484;13.832;2023-04-06T01:29:39;98424.53;;;3.76;51.78
12471;BME280;36499;46.484;13.832;2023-04-06T01:32:08;98422.00;;;3.73;51.69
12471;BME280;36499;46.484;13.832;2023-04-06T01:34:35;98422.94;;;3.70;51.19
12471;BME280;36499;46.484;13.832;2023-04-06T01:37:03;98423.00;;;3.67;51.75
12471;BME280;36499;46.484;13.832;2023-04-06T01:39:31;98426.47;;;3.66;51.35
12471;BME280;36499;46.484;13.832;2023-04-06T01:41:59;98423.03;;;3.66;52.44
12471;BME280;36499;46.484;13.832;2023-04-06T01:44:26;98419.66;;;3.64;52.31
12471;BME280;36499;46.484;13.832;2023-04-06T01:46:56;98422.34;;;3.61;51.55
12471;BME280;36499;46.484;13.832;2023-04-06T01:49:23;98411.16;;;3.60;52.30
12471;BME280;36499;46.484;13.832;2023-04-06T01:51:50;98418.97;;;3.57;52.48
12471;BME280;36499;46.484;13.832;2023-04-06T01:54:18;98414.69;;;3.56;52.39
12471;BME280;36499;46.484;13.832;2023-04-06T01:56:47;98413.97;;;3.51;51.87
12471;BME280;36499;46.484;13.832;2023-04-06T01:59:16;98401.22;;;3.45;53.07
12471;BME280;36499;46.484;13.832;2023-04-06T02:01:43;98409.84;;;3.44;52.49
12471;BME280;36499;46.484;13.832;2023-04-06T02:04:11;98413.34;;;3.42;53.29
12471;BME280;36499;46.484;13.832;2023-04-06T02:06:39;98409.09;;;3.39;52.95
12471;BME280;36499;46.484;13.832;2023-04-06T02:09:06;98413.38;;;3.40;53.40
12471;BME280;36499;46.484;13.832;2023-04-06T02:11:33;98414.22;;;3.41;52.80
12471;BME280;36499;46.484;13.832;2023-04-06T02:14:02;98414.25;;;3.39;53.82
12471;BME280;36499;46.484;13.832;2023-04-06T02:16:29;98412.53;;;3.39;54.37
12471;BME280;36499;46.484;13.832;2023-04-06T02:18:57;98414.31;;;3.37;53.69
12471;BME280;36499;46.484;13.832;2023-04-06T02:21:24;98408.47;;;3.31;53.88
12471;BME280;36499;46.484;13.832;2023-04-06T02:23:51;98405.91;;;3.29;54.71
12471;BME280;36499;46.484;13.832;2023-04-06T02:26:18;98418.81;;;3.28;55.06
12471;BME280;36499;46.484;13.832;2023-04-06T02:28:45;98413.75;;;3.25;54.90
12471;BME280;36499;46.484;13.832;2023-04-06T02:31:14;98406.88;;;3.24;54.09
12471;BME280;36499;46.484;13.832;2023-04-06T02:33:41;98412.94;;;3.23;54.09
12471;BME280;36499;46.484;13.832;2023-04-06T02:36:09;98412.94;;;3.23;54.54
12471;BME280;36499;46.484;13.832;2023-04-06T02:38:36;98406.16;;;3.19;54.32
12471;BME280;36499;46.484;13.832;2023-04-06T02:41:03;98401.13;;;3.14;53.79
12471;BME280;36499;46.484;13.832;2023-04-06T02:43:30;98405.44;;;3.12;54.27
12471;BME280;36499;46.484;13.832;2023-04-06T02:45:58;98405.59;;;3.06;53.63
12471;BME280;36499;46.484;13.832;2023-04-06T02:48:26;98414.19;;;3.07;54.42
12471;BME280;36499;46.484;13.832;2023-04-06T02:50:53;98408.19;;;3.05;54.49
12471;BME280;36499;46.484;13.832;2023-04-06T02:53:21;98406.56;;;3.02;54.48
12471;BME280;36499;46.484;13.832;2023-04-06T02:55:48;98405.78;;;2.99;55.14
12471;BME280;36499;46.484;13.832;2023-04-06T02:58:15;98410.94;;;2.99;54.19
12471;BME280;36499;46.484;13.832;2023-04-06T03:00:43;98409.28;;;2.96;54.76
12471;BME280;36499;46.484;13.832;2023-04-06T03:03:10;98405.94;;;2.93;54.80
12471;BME280;36499;46.484;13.832;2023-04-06T03:05:39;98405.94;;;2.93;54.14
12471;BME280;36499;46.484;13.832;2023-04-06T03:08:06;98399.88;;;2.94;54.98
12471;BME280;36499;46.484;13.832;2023-04-06T03:10:33;98403.38;;;2.91;54.74
12471;BME280;36499;46.484;13.832;2023-04-06T03:13:00;98396.50;;;2.92;54.97
12471;BME280;36499;46.484;13.832;2023-04-06T03:15:28;98399.06;;;2.92;55.27
12471;BME280;36499;46.484;13.832;2023-04-06T03:17:55;98397.38;;;2.90;55.23
12471;BME280;36499;46.484;13.832;2023-04-06T03:20:22;98397.47;;;2.86;55.23
12471;BME280;36499;46.484;13.832;2023-04-06T03:22:51;98391.59;;;2.81;56.40
12471;BME280;36499;46.484;13.832;2023-04-06T03:25:18;98398.47;;;2.80;55.78
12471;BME280;36499;46.484;13.832;2023-04-06T03:27:45;98403.66;;;2.79;56.47
12471;BME280;36499;46.484;13.832;2023-04-06T03:30:13;98397.59;;;2.81;56.15
12471;BME280;36499;46.484;13.832;2023-04-06T03:32:41;98405.31;;;2.81;55.74
12471;BME280;36499;46.484;13.832;2023-04-06T03:35:09;98401.06;;;2.79;56.56
12471;BME280;36499;46.484;13.832;2023-04-06T03:37:36;98401.03;;;2.80;56.41
12471;BME280;36499;46.484;13.832;2023-04-06T03:40:06;98405.28;;;2.83;55.95
12471;BME280;36499;46.484;13.832;2023-04-06T03:42:34;98405.19;;;2.86;56.49
12471;BME280;36499;46.484;13.832;2023-04-06T03:45:01;98413.00;;;2.84;56.65
12471;BME280;36499;46.484;13.832;2023-04-06T03:47:28;98411.28;;;2.83;56.82
12471;BME280;36499;46.484;13.832;2023-04-06T03:49:56;98412.22;;;2.81;56.53
12471;BME280;36499;46.484;13.832;2023-04-06T03:52:23;98411.44;;;2.77;56.80
12471;BME280;36499;46.484;13.832;2023-04-06T03:54:50;98415.81;;;2.74;56.77
12471;BME280;36499;46.484;13.832;2023-04-06T03:57:19;98415.81;;;2.72;56.51
12471;BME280;36499;46.484;13.832;2023-04-06T03:59:46;98410.75;;;2.69;56.39
12471;BME280;36499;46.484;13.832;2023-04-06T04:02:13;98410.75;;;2.69;56.00
12471;BME280;36499;46.484;13.832;2023-04-06T04:04:41;98409.91;;;2.69;55.93
12471;BME280;36499;46.484;13.832;2023-04-06T04:07:08;98416.78;;;2.67;56.88
12471;BME280;36499;46.484;13.832;2023-04-06T04:09:36;98422.88;;;2.64;55.95
12471;BME280;36499;46.484;13.832;2023-04-06T04:12:04;98425.53;;;2.61;56.91
12471;BME280;36499;46.484;13.832;2023-04-06T04:14:32;98420.38;;;2.61;56.66
12471;BME280;36499;46.484;13.832;2023-04-06T04:17:00;98417.81;;;2.60;56.32
12471;BME280;36499;46.484;13.832;2023-04-06T04:19:27;98428.16;;;2.58;56.75
12471;BME280;36499;46.484;13.832;2023-04-06T04:21:54;98420.47;;;2.55;56.60
12471;BME280;36499;46.484;13.832;2023-04-06T04:24:21;98422.22;;;2.55;56.09
12471;BME280;36499;46.484;13.832;2023-04-06T04:26:49;98418.03;;;2.49;56.67
12471;BME280;36499;46.484;13.832;2023-04-06T04:29:16;98422.44;;;2.44;57.12
12471;BME280;36499;46.484;13.832;2023-04-06T04:31:48;98426.72;;;2.43;56.42
12471;BME280;36499;46.484;13.832;2023-04-06T04:34:15;98425.94;;;2.40;56.49
12471;BME280;36499;46.484;13.832;2023-04-06T04:36:42;98429.44;;;2.39;56.56
12471;BME280;36499;46.484;13.832;2023-04-06T04:39:10;98431.16;;;2.37;57.38
12471;BME280;36499;46.484;13.832;2023-04-06T04:41:37;98438.88;;;2.38;56.53
12471;BME280;36499;46.484;13.832;2023-04-06T04:44:04;98437.16;;;2.37;57.14
12471;BME280;36499;46.484;13.832;2023-04-06T04:46:32;98434.59;;;2.37;56.84
12471;BME280;36499;46.484;13.832;2023-04-06T04:49:00;98443.19;;;2.38;57.09
12471;BME280;36499;46.484;13.832;2023-04-06T04:51:27;98441.47;;;2.37;57.31
12471;BME280;36499;46.484;13.832;2023-04-06T04:53:56;98446.56;;;2.40;56.77
12471;BME280;36499;46.484;13.832;2023-04-06T04:56:23;98448.31;;;2.38;56.96
12471;BME280;36499;46.484;13.832;2023-04-06T04:58:51;98449.97;;;2.40;57.24
12471;BME280;36499;46.484;13.832;2023-04-06T05:01:18;98454.25;;;2.43;57.86
12471;BME280;36499;46.484;13.832;2023-04-06T05:03:45;98454.19;;;2.46;57.16
12471;BME280;36499;46.484;13.832;2023-04-06T05:06:14;98443.81;;;2.49;57.33
12471;BME280;36499;46.484;13.832;2023-04-06T05:08:41;98447.16;;;2.53;58.29
12471;BME280;36499;46.484;13.832;2023-04-06T05:11:09;98459.97;;;2.56;57.50
12471;BME280;36499;46.484;13.832;2023-04-06T05:13:36;98455.59;;;2.61;58.01
12471;BME280;36499;46.484;13.832;2023-04-06T05:16:04;98451.22;;;2.63;57.20
12471;BME280;36499;46.484;13.832;2023-04-06T05:18:31;98452.88;;;2.67;56.81
12471;BME280;36499;46.484;13.832;2023-04-06T05:20:59;98457.94;;;2.71;57.41
12471;BME280;36499;46.484;13.832;2023-04-06T05:23:27;98450.09;;;2.76;57.07
12471;BME280;36499;46.484;13.832;2023-04-06T05:25:55;98454.31;;;2.80;57.12
12471;BME280;36499;46.484;13.832;2023-04-06T05:28:22;98461.13;;;2.82;56.60
12471;BME280;36499;46.484;13.832;2023-04-06T05:30:49;98455.94;;;2.84;56.59
12471;BME280;36499;46.484;13.832;2023-04-06T05:33:17;98460.94;;;2.92;56.49
12471;BME280;36499;46.484;13.832;2023-04-06T05:35:45;98454.78;;;2.97;56.77
12471;BME280;36499;46.484;13.832;2023-04-06T05:38:12;98457.19;;;3.05;55.97
12471;BME280;36499;46.484;13.832;2023-04-06T05:40:41;98457.06;;;3.11;56.12
12471;BME280;36499;46.484;13.832;2023-04-06T05:43:08;98460.38;;;3.16;55.42
12471;BME280;36499;46.484;13.832;2023-04-06T05:45:36;98455.09;;;3.22;55.77
12471;BME280;36499;46.484;13.832;2023-04-06T05:48:03;98463.94;;;3.12;56.69
12471;BME280;36499;46.484;13.832;2023-04-06T05:50:30;98464.63;;;3.18;55.77
12471;BME280;36499;46.484;13.832;2023-04-06T05:52:58;98462.16;;;3.14;55.73
12471;BME280;36499;46.484;13.832;2023-04-06T05:55:25;98463.59;;;3.27;56.14
12471;BME280;36499;46.484;13.832;2023-04-06T05:57:55;98464.94;;;3.05;56.50
12471;BME280;36499;46.484;13.832;2023-04-06T06:00:22;98459.59;;;3.12;56.40
12471;BME280;36499;46.484;13.832;2023-04-06T06:02:49;98459.41;;;3.20;56.94
12471;BME280;36499;46.484;13.832;2023-04-06T06:05:17;98469.53;;;3.29;57.57
12471;BME280;36499;46.484;13.832;2023-04-06T06:07:44;98462.31;;;3.43;57.25
12471;BME280;36499;46.484;13.832;2023-04-06T06:10:11;98458.97;;;3.39;57.03
12471;BME280;36499;46.484;13.832;2023-04-06T06:12:39;98462.09;;;3.52;56.25
12471;BME280;36499;46.484;13.832;2023-04-06T06:15:08;98462.88;;;3.56;56.37
12471;BME280;36499;46.484;13.832;2023-04-06T06:17:36;98457.38;;;3.69;55.89
12471;BME280;36499;46.484;13.832;2023-04-06T06:20:06;98458.97;;;3.75;55.75
12471;BME280;36499;46.484;13.832;2023-04-06T06:22:34;98456.00;;;3.88;55.46
12471;BME280;36499;46.484;13.832;2023-04-06T06:25:02;98460.97;;;3.96;54.68
12471;BME280;36499;46.484;13.832;2023-04-06T06:27:29;98452.28;;;4.00;55.02
12471;BME280;36499;46.484;13.832;2023-04-06T06:29:56;98452.25;;;4.02;55.23
12471;BME280;36499;46.484;13.832;2023-04-06T06:32:25;98459.88;;;4.06;54.57
12471;BME280;36499;46.484;13.832;2023-04-06T06:34:52;98455.22;;;3.86;55.46
12471;BME280;36499;46.484;13.832;2023-04-06T06:37:19;98447.94;;;4.01;54.75
12471;BME280;36499;46.484;13.832;2023-04-06T06:39:47;98446.09;;;4.06;55.09
12471;BME280;36499;46.484;13.832;2023-04-06T06:42:14;98447.63;;;4.13;55.72
12471;BME280;36499;46.484;13.832;2023-04-06T06:44:41;98456.97;;;3.84;55.99
12471;BME280;36499;46.484;13.832;2023-04-06T06:47:08;98449.16;;;4.20;54.63
12471;BME280;36499;46.484;13.832;2023-04-06T06:49:37;98447.00;;;4.35;54.10
12471;BME280;36499;46.484;13.832;2023-04-06T06:52:04;98435.69;;;4.40;53.83
12471;BME280;36499;46.484;13.832;2023-04-06T06:54:31;98436.13;;;4.55;54.35
12471;BME280;36499;46.484;13.832;2023-04-06T06:56:59;98437.66;;;4.61;54.05
12471;BME280;36499;46.484;13.832;2023-04-06T06:59:26;98437.28;;;4.74;53.85
12471;BME280;36499;46.484;13.832;2023-04-06T07:01:53;98434.28;;;4.88;52.58
12471;BME280;36499;46.484;13.832;2023-04-06T07:04:21;98440.09;;;4.95;52.26
12471;BME280;36499;46.484;13.832;2023-04-06T07:06:49;98431.34;;;4.99;52.46
12471;BME280;36499;46.484;13.832;2023-04-06T07:09:16;98432.56;;;5.15;51.32
12471;BME280;36499;46.484;13.832;2023-04-06T07:11:44;98434.00;;;5.25;51.87
12471;BME280;36499;46.484;13.832;2023-04-06T07:14:11;98432.84;;;5.33;51.26
12471;BME280;36499;46.484;13.832;2023-04-06T07:16:38;98434.06;;;5.50;51.16
12471;BME280;36499;46.484;13.832;2023-04-06T07:19:07;98436.19;;;5.63;50.85
12471;BME280;36499;46.484;13.832;2023-04-06T07:21:35;98431.44;;;5.76;50.62
12471;BME280;36499;46.484;13.832;2023-04-06T07:24:04;98432.66;;;5.92;49.61
12471;BME280;36499;46.484;13.832;2023-04-06T07:26:31;98430.50;;;6.05;49.90
12471;BME280;36499;46.484;13.832;2023-04-06T07:28:58;98427.16;;;6.26;49.70
12471;BME280;36499;46.484;13.832;2023-04-06T07:31:26;98432.50;;;6.45;48.71
12471;BME280;36499;46.484;13.832;2023-04-06T07:33:53;98424.19;;;6.60;47.62
12471;BME280;36499;46.484;13.832;2023-04-06T07:36:20;98425.06;;;6.82;46.96
12471;BME280;36499;46.484;13.832;2023-04-06T07:38:47;98424.44;;;6.99;47.17
12471;BME280;36499;46.484;13.832;2023-04-06T07:41:17;98428.19;;;7.13;46.40
12471;BME280;36499;46.484;13.832;2023-04-06T07:43:44;98412.00;;;7.29;45.69
12471;BME280;36499;46.484;13.832;2023-04-06T07:46:11;98417.41;;;7.44;45.61
12471;BME280;36499;46.484;13.832;2023-04-06T07:48:38;98420.97;;;7.63;45.55
12471;BME280;36499;46.484;13.832;2023-04-06T07:51:06;98411.53;;;7.81;44.22
12471;BME280;36499;46.484;13.832;2023-04-06T07:53:34;98409.19;;;7.95;43.67
12471;BME280;36499;46.484;13.832;2023-04-06T07:56:02;98397.94;;;8.15;42.96
12471;BME280;36499;46.484;13.832;2023-04-06T07:58:30;98399.91;;;8.30;42.55
12471;BME280;36499;46.484;13.832;2023-04-06T08:00:57;98398.66;;;8.39;42.60
12471;BME280;36499;46.484;13.832;2023-04-06T08:03:25;98402.34;;;8.53;42.12
12471;BME280;36499;46.484;13.832;2023-04-06T08:05:52;98398.13;;;8.70;41.24
12471;BME280;36499;46.484;13.832;2023-04-06T08:08:20;98394.66;;;8.88;38.39
12471;BME280;36499;46.484;13.832;2023-04-06T08:10:48;98382.16;;;8.96;37.23
12471;BME280;36499;46.484;13.832;2023-04-06T08:13:15;98383.72;;;9.17;38.09
12471;BME280;36499;46.484;13.832;2023-04-06T08:15:44;98385.47;;;9.35;36.51
12471;BME280;36499;46.484;13.832;2023-04-06T08:18:12;98380.34;;;9.51;36.49
12471;BME280;36499;46.484;13.832;2023-04-06T08:20:39;98383.16;;;9.63;35.94
12471;BME280;36499;46.484;13.832;2023-04-06T08:23:07;98373.50;;;9.83;35.87
12471;BME280;36499;46.484;13.832;2023-04-06T08:25:35;98370.75;;;10.03;36.00
12471;BME280;36499;46.484;13.832;2023-04-06T08:28:03;98370.72;;;10.20;34.45
12471;BME280;36499;46.484;13.832;2023-04-06T08:30:31;98370.72;;;10.20;34.54
12471;BME280;36499;46.484;13.832;2023-04-06T08:32:59;98367.31;;;10.35;34.17
12471;BME280;36499;46.484;13.832;2023-04-06T08:35:27;98365.22;;;9.75;33.46
12471;BME280;36499;46.484;13.832;2023-04-06T08:37:54;98373.81;;;9.94;32.82
12471;BME280;36499;46.484;13.832;2023-04-06T08:40:22;98361.00;;;9.89;33.91
12471;BME280;36499;46.484;13.832;2023-04-06T08:42:54;98366.19;;;10.06;33.43
12471;BME280;36499;46.484;13.832;2023-04-06T08:45:22;98364.75;;;10.01;33.57
12471;BME280;36499;46.484;13.832;2023-04-06T08:47:51;98358.16;;;10.11;33.36
12471;BME280;36499;46.484;13.832;2023-04-06T08:50:20;98357.03;;;10.32;34.17
12471;BME280;36499;46.484;13.832;2023-04-06T08:52:49;98355.13;;;10.51;33.81
12471;BME280;36499;46.484;13.832;2023-04-06T08:55:16;98357.78;;;10.67;33.67
12471;BME280;36499;46.484;13.832;2023-04-06T08:57:45;98353.22;;;10.86;32.32
12471;BME280;36499;46.484;13.832;2023-04-06T09:00:15;98352.69;;;10.48;32.85
12471;BME280;36499;46.484;13.832;2023-04-06T09:02:45;98343.81;;;10.35;33.54
12471;BME280;36499;46.484;13.832;2023-04-06T09:05:13;98348.97;;;10.37;33.74
12471;BME280;36499;46.484;13.832;2023-04-06T09:07:42;98346.16;;;10.73;33.29
12471;BME280;36499;46.484;13.832;2023-04-06T09:10:09;98345.22;;;11.05;33.18
12471;BME280;36499;46.484;13.832;2023-04-06T09:12:36;98340.03;;;11.19;32.91
12471;BME280;36499;46.484;13.832;2023-04-06T09:15:05;98332.50;;;11.44;32.67
12471;BME280;36499;46.484;13.832;2023-04-06T09:17:33;98327.84;;;11.79;32.43
12471;BME280;36499;46.484;13.832;2023-04-06T09:20:00;98322.53;;;11.95;32.09
12471;BME280;36499;46.484;13.832;2023-04-06T09:22:36;98319.94;;;12.23;32.39
12471;BME280;36499;46.484;13.832;2023-04-06T09:25:07;98321.25;;;12.30;31.57
12471;BME280;36499;46.484;13.832;2023-04-06T09:27:37;98310.75;;;12.59;31.90
12471;BME280;36499;46.484;13.832;2023-04-06T09:30:09;98310.88;;;12.84;31.15
12471;BME280;36499;46.484;13.832;2023-04-06T09:32:50;98307.69;;;13.06;31.35
12471;BME280;36499;46.484;13.832;2023-04-06T09:35:19;98305.56;;;13.12;30.31
12471;BME280;36499;46.484;13.832;2023-04-06T09:37:48;98302.25;;;13.35;29.91
12471;BME280;36499;46.484;13.832;2023-04-06T09:40:18;98299.47;;;13.38;30.14
12471;BME280;36499;46.484;13.832;2023-04-06T09:42:49;98298.56;;;13.65;30.60
12471;BME280;36499;46.484;13.832;2023-04-06T09:45:18;98298.97;;;12.78;29.93
12471;BME280;36499;46.484;13.832;2023-04-06T09:47:46;98293.97;;;12.20;30.35
12471;BME280;36499;46.484;13.832;2023-04-06T09:50:14;98287.63;;;12.65;30.08
12471;BME280;36499;46.484;13.832;2023-04-06T09:52:48;98285.03;;;12.92;30.26
12471;BME280;36499;46.484;13.832;2023-04-06T09:55:27;98284.56;;;12.59;30.90
12471;BME280;36499;46.484;13.832;2023-04-06T09:58:04;98285.81;;;12.39;30.36
12471;BME280;36499;46.484;13.832;2023-04-06T10:00:40;98272.50;;;12.83;29.68
12471;BME280;36499;46.484;13.832;2023-04-06T10:03:21;98259.88;;;13.02;30.49
12471;BME280;36499;46.484;13.832;2023-04-06T10:05:57;98258.75;;;13.06;30.05
12471;BME280;36499;46.484;13.832;2023-04-06T10:08:28;98254.03;;;13.38;29.51
12471;BME280;36499;46.484;13.832;2023-04-06T10:10:59;98232.66;;;13.05;29.62
12471;BME280;36499;46.484;13.832;2023-04-06T10:13:27;98238.44;;;12.83;29.47
12471;BME280;36499;46.484;13.832;2023-04-06T10:15:55;98239.72;;;12.90;29.14
12471;BME280;36499;46.484;13.832;2023-04-06T10:18:23;98236.09;;;12.92;29.06
12471;BME280;36499;46.484;13.832;2023-04-06T10:20:57;98234.31;;;12.93;29.12
12471;BME280;36499;46.484;13.832;2023-04-06T10:23:35;98231.34;;;13.12;29.09
12471;BME280;36499;46.484;13.832;2023-04-06T10:26:04;98226.94;;;13.25;28.92
12471;BME280;36499;46.484;13.832;2023-04-06T10:28:34;98224.38;;;13.50;28.94
12471;BME280;36499;46.484;13.832;2023-04-06T10:31:05;98214.94;;;13.73;28.18
12471;BME280;36499;46.484;13.832;2023-04-06T10:33:33;98217.31;;;14.01;28.34
12471;BME280;36499;46.484;13.832;2023-04-06T10:36:10;98220.63;;;14.28;28.25
12471;BME280;36499;46.484;13.832;2023-04-06T10:38:39;98210.31;;;13.51;28.63
12471;BME280;36499;46.484;13.832;2023-04-06T10:41:10;98208.72;;;13.49;29.45
12471;BME280;36499;46.484;13.832;2023-04-06T10:43:39;98205.91;;;13.52;28.87
12471;BME280;36499;46.484;13.832;2023-04-06T10:46:09;98210.31;;;13.38;28.63
12471;BME280;36499;46.484;13.832;2023-04-06T10:48:38;98193.50;;;13.91;28.48
12471;BME280;36499;46.484;13.832;2023-04-06T10:51:12;98196.75;;;14.31;28.83
12471;BME280;36499;46.484;13.832;2023-04-06T10:53:42;98186.56;;;14.27;28.15
12471;BME280;36499;46.484;13.832;2023-04-06T10:56:13;98195.59;;;13.74;27.33
12471;BME280;36499;46.484;13.832;2023-04-06T10:58:45;98195.06;;;14.07;27.59
12471;BME280;36499;46.484;13.832;2023-04-06T11:01:15;98185.50;;;14.06;26.85
12471;BME280;36499;46.484;13.832;2023-04-06T11:03:44;98182.78;;;14.44;26.96
12471;BME280;36499;46.484;13.832;2023-04-06T11:06:18;98181.81;;;14.08;27.09
12471;BME280;36499;46.484;13.832;2023-04-06T11:08:46;98178.47;;;14.06;27.05
12471;BME280;36499;46.484;13.832;2023-04-06T11:11:17;98172.56;;;13.54;27.93
12471;BME280;36499;46.484;13.832;2023-04-06T11:13:49;98160.66;;;13.86;27.36
12471;BME280;36499;46.484;13.832;2023-04-06T11:16:18;98162.53;;;14.33;28.01
12471;BME280;36499;46.484;13.832;2023-04-06T11:18:52;98149.19;;;14.60;27.45
12471;BME280;36499;46.484;13.832;2023-04-06T11:21:31;98139.34;;;15.09;27.94
12471;BME280;36499;46.484;13.832;2023-04-06T11:24:06;98143.84;;;15.64;26.75
12471;BME280;36499;46.484;13.832;2023-04-06T11:26:42;98130.56;;;15.77;25.86
12471;BME280;36499;46.484;13.832;2023-04-06T11:29:11;98136.66;;;16.00;25.21
12471;BME280;36499;46.484;13.832;2023-04-06T11:31:41;98131.66;;;15.86;25.10
12471;BME280;36499;46.484;13.832;2023-04-06T11:34:13;98126.31;;;15.30;25.15
12471;BME280;36499;46.484;13.832;2023-04-06T11:36:43;98121.50;;;15.70;25.15
12471;BME280;36499;46.484;13.832;2023-04-06T11:39:12;98109.31;;;16.23;25.81
12471;BME280;36499;46.484;13.832;2023-04-06T11:41:41;98104.63;;;16.69;25.39
12471;BME280;36499;46.484;13.832;2023-04-06T11:44:09;98109.00;;;16.80;24.40
12471;BME280;36499;46.484;13.832;2023-04-06T11:46:36;98105.53;;;17.21;24.81
12471;BME280;36499;46.484;13.832;2023-04-06T11:49:03;98095.53;;;17.45;24.49
12471;BME280;36499;46.484;13.832;2023-04-06T11:51:36;98096.69;;;17.83;23.81
12471;BME280;36499;46.484;13.832;2023-04-06T11:54:03;98090.06;;;18.07;23.51
12471;BME280;36499;46.484;13.832;2023-04-06T11:56:31;98084.50;;;18.01;22.81
12471;BME280;36499;46.484;13.832;2023-04-06T11:58:59;98083.72;;;18.39;23.04
12471;BME280;36499;46.484;13.832;2023-04-06T12:01:26;98073.72;;;18.61;23.40
12471;BME280;36499;46.484;13.832;2023-04-06T12:03:54;98071.63;;;18.94;23.45
12471;BME280;36499;46.484;13.832;2023-04-06T12:06:21;98066.97;;;19.25;22.37
12471;BME280;36499;46.484;13.832;2023-04-06T12:08:51;98057.25;;;19.52;21.04
12471;BME280;36499;46.484;13.832;2023-04-06T12:11:18;98062.25;;;19.83;21.21
12471;BME280;36499;46.484;13.832;2023-04-06T12:13:47;98054.72;;;20.05;21.08
12471;BME280;36499;46.484;13.832;2023-04-06T12:16:16;98043.25;;;20.15;20.43
12471;BME280;36499;46.484;13.832;2023-04-06T12:18:45;98046.38;;;20.28;20.02
12471;BME280;36499;46.484;13.832;2023-04-06T12:21:12;98039.44;;;20.17;19.34
12471;BME280;36499;46.484;13.832;2023-04-06T12:23:39;98039.31;;;19.46;19.76
12471;BME280;36499;46.484;13.832;2023-04-06T12:26:06;98039.13;;;19.11;20.20
12471;BME280;36499;46.484;13.832;2023-04-06T12:28:33;98023.72;;;19.43;21.35
12471;BME280;36499;46.484;13.832;2023-04-06T12:31:01;98027.25;;;18.59;21.20
12471;BME280;36499;46.484;13.832;2023-04-06T12:33:30;98022.16;;;19.04;20.47
12471;BME280;36499;46.484;13.832;2023-04-06T12:35:57;98015.78;;;19.34;20.32
12471;BME280;36499;46.484;13.832;2023-04-06T12:38:24;98014.66;;;19.46;20.41
12471;BME280;36499;46.484;13.832;2023-04-06T12:40:52;98016.91;;;19.68;20.44
12471;BME280;36499;46.484;13.832;2023-04-06T12:43:19;98010.28;;;19.99;20.41
12471;BME280;36499;46.484;13.832;2023-04-06T12:45:46;98012.03;;;19.91;20.30
12471;BME280;36499;46.484;13.832;2023-04-06T12:48:13;97996.19;;;20.17;19.65
12471;BME280;36499;46.484;13.832;2023-04-06T12:50:42;98003.56;;;20.23;20.02
12471;BME280;36499;46.484;13.832;2023-04-06T12:53:09;97991.53;;;20.46;19.86
12471;BME280;36499;46.484;13.832;2023-04-06T12:55:36;97991.66;;;20.62;18.97
12471;BME280;36499;46.484;13.832;2023-04-06T12:58:04;97992.63;;;19.90;18.82
12471;BME280;36499;46.484;13.832;2023-04-06T13:00:31;97985.13;;;20.31;19.90
12471;BME280;36499;46.484;13.832;2023-04-06T13:02:58;97978.63;;;20.51;19.30